Terminal Aerodrome Forecast
Issued by NWS

Home | Current Version | Previous Version | Text Only | Print | Product List | Glossary On
Versions: 1 2 3 4 5 6 7 8 9 10 11 12
000
FTUS43 KAPX 201136
TAFTVC
TAF
KTVC 201136Z 2012/2112 14005KT P6SM BKN250
     FM201800 14009KT P6SM SCT200
     FM210000 14008KT P6SM BKN090 WS020/16045KT
     FM210600 17008KT P6SM SHRA OVC080 WS020/18050KT
     FM210700 17008KT 5SM SHRA OVC070 WS020/19050KT
     FM211000 20008KT 3SM SHRA OVC008 WS020/22040KT=

USA.gov is the U.S. government's official web portal to all federal, state and local government web resources and services.